Tiempo atmosférico en la estación meteorológica de Valderredible, Polientes, Cantabria (720 m.)



Fecha
DESCASC
Temp. máxima en grados centígrados (hora)
DESCASC
Temp. mínima en grados centígrados (hora)
DESCASC
Temp. media en grados centígrados
DESCASC
Racha de viento máxima en m/sg (hora)
DESCASC
Velocidad máxima media en intervalos de 10 minutos(hora)
DESCASC
Precipitaciones diarias en mm
DESCASC
Precipitaciones de 00:00 a 06:00 en mm
DESCASC
Precipitaciones de 06:00 a 12:00 en mm
DESCASC
Precipitaciones de 12:00 a 18:00 en mm
DESCASC
Precipitaciones de 18:00 a 24:00 en mm
DESCASC
18-08-2019 28.7 (14:50) 11.7 (08:10) 20.2 10.83 (15:30) 3.89 (17:30) 0.3 0 0 0 0.3
17-08-2019 34.1 (17:50) 7.3 (08:00) 20.7 8.33 (16:40) 3.89 (17:50) 0 0 0 0 0
16-08-2019 33.1 (15:50) 11.8 (08:00) 22.4 8.61 (18:10) 3.61 (19:10) 0 0 0 0 0
15-08-2019 24.6 (15:30) 14 (00:00) 19.3 8.61 (15:00) 3.61 (17:00) 0 0 0 0 0
14-08-2019 29.1 (15:10) 7.7 (00:00) 18.4 8.89 (17:50) 3.61 (16:40) 0 0 0 0 0
13-08-2019 24.2 (15:40) 6.5 (00:00) 15.4 6.39 (17:40) 2.78 (18:00) 0 0 0 0 0
12-08-2019 20.8 (15:50) 7.4 (00:00) 14.1 10.83 (16:50) 3.89 (15:10) 1.4 1.3 0.1 0 0
11-08-2019 21.6 (14:20) 11.8 (00:00) 16.7 8.89 (17:20) 3.61 (18:40) 10.5 9.1 1.4 0 0
10-08-2019 27.8 (15:00) 12.6 (00:00) 20.2 9.44 (16:40) 3.61 (17:00) 0 0 0 0 0
09-08-2019 28.9 (15:50) 15.5 (00:00) 22.2 15.28 (15:00) 8.33 (14:50) 0 0 0 0 0
08-08-2019 30.5 (17:30) 16.4 (00:00) 23.4 12.22 (17:00) 6.11 (16:40) 0 0 0 0 0
07-08-2019 28.4 (14:10) 14.9 (00:00) 21.6 11.11 (18:00) 5.28 (17:50) 0.4 0.4 0 0 0
06-08-2019 31.9 (15:30) 9.4 (00:00) 20.6 8.61 (17:20) 3.89 (16:30) 0.3 0 0 0 0.3
05-08-2019 30.7 (15:40) 10.8 (00:00) 20.8 9.17 (18:00) 3.61 (15:50) 0 0 0 0 0
04-08-2019 30.2 (15:30) 10.8 (00:00) 20.5 9.72 (16:30) 3.61 (16:50) 0 0 0 0 0
03-08-2019 34.4 (15:50) 11.9 (00:00) 23.2 8.61 (19:40) 3.61 (18:40) 0 0 0 0 0
02-08-2019 30 (16:30) 11.9 (00:00) 20.9 7.22 (18:30) 2.5 (17:40) 0 0 0 0 0
01-08-2019 22.4 (17:30) 14.1 (00:00) 18.3 7.5 (17:40) 3.33 (17:50) 0 0 0 0 0
31-07-2019 23.8 (16:10) 7.8 (00:00) 15.8 6.94 (16:40) 2.5 (11:20) 0 0 0 0 0
30-07-2019 22.5 (15:40) 10.3 (00:00) 16.4 8.89 (16:50) 2.78 (12:10) 0 0 0 0 0
29-07-2019 28.5 (16:40) 6.7 (00:00) 17.6 10.83 (17:00) 4.72 (13:20) 0 0 0 0 0
28-07-2019 26 (18:10) 8.4 (00:00) 17.2 6.39 (17:10) 2.5 (16:00) 0 0 0 0 0
27-07-2019 16.8 (16:40) 12.1 (00:00) 14.4 5.83 (20:10) 2.22 (18:40) 13.5 2.7 5.8 5 0
26-07-2019 18.7 (00:00) 14 (00:00) 16.4 8.33 (18:00) 2.78 (19:50) 0.1 0 0 0.1 0
25-07-2019 34.9 (17:10) 12.9 (00:00) 23.9 11.39 (16:00) 4.72 (16:00) 0 0 0 0 0
24-07-2019 35.4 (18:10) 13.4 (00:00) 24.4 10 (16:20) 3.89 (18:20) 0 0 0 0 0
23-07-2019 35.8 (19:10) 12.4 (00:00) 24.1 15.56 (19:40) 6.11 (19:40) 3.7 0 0 0 3.7
22-07-2019 37.3 (17:20) 18 (00:00) 27.6 11.39 (21:40) 5 (21:40) 0 0 0 0 0
21-07-2019 30.1 (17:10) 15.7 (00:00) 22.9 8.06 (18:10) 3.33 (18:30) 0 0 0 0 0

Gráficas

Temp. máximas Temp. mínimas Temp. medias Precipitaciones Rachas de viento máximas Velocidades máximas media en intervalos de 10 minutos

Datos horarios

Fecha y hora oficial Temperatura (ºC) Velocidad del viento (km/h) Dirección del viento Racha (km/h) Dirección de racha Precipitación (mm) Presión (hPa) Tendencia (hPa) Humedad (%)
2019-08-19 23:00:00 13.7 5 Nordeste 13 Nordeste 0 -- -- 82
2019-08-19 22:00:00 13.5 4 Nordeste 20 Nordeste 0 -- -- 85
2019-08-19 21:00:00 14.1 6 Nordeste 23 Nordeste 0 -- -- 80
2019-08-19 20:00:00 14.9 5 Nordeste 17 Norte 0 -- -- 74
2019-08-19 19:00:00 15.1 5 Nordeste 17 Nordeste 0 -- -- 73
2019-08-19 18:00:00 16 4 Nordeste 17 Nordeste 0 -- -- 68
2019-08-19 17:00:00 16.6 5 Nordeste 24 Nordeste 0 -- -- 64
2019-08-19 16:00:00 16.7 4 Nordeste 22 Nordeste 0 -- -- 63
2019-08-19 15:00:00 16.6 4 Nordeste 19 Nordeste 0 -- -- 66
2019-08-19 14:00:00 16.5 8 Nordeste 21 Este 0 -- -- 65
2019-08-19 13:00:00 15.7 6 Nordeste 18 Este 0 -- -- 71
2019-08-19 12:00:00 15.2 4 Nordeste 14 Nordeste 0 -- -- 75
2019-08-19 11:00:00 14.1 4 Nordeste 16 Nordeste 0 -- -- 84
2019-08-19 10:00:00 13.3 4 Nordeste 16 Nordeste 0 -- -- 88
2019-08-19 09:00:00 13 3 Nordeste 13 Nordeste 0 -- -- 89
2019-08-19 08:00:00 13.2 3 Nordeste 14 Este 0 -- -- 87
2019-08-19 07:00:00 13.1 3 Nordeste 12 Nordeste 0 -- -- 84
2019-08-19 06:00:00 13.2 4 Nordeste 14 Nordeste 0 -- -- 84
2019-08-19 05:00:00 13.1 5 Nordeste 13 Nordeste 0 -- -- 84
2019-08-19 04:00:00 13.2 0 Calma 15 Nordeste 0 -- -- 86
2019-08-19 03:00:00 13.2 4 Nordeste 13 Este 0 -- -- 86
2019-08-19 02:00:00 13.2 7 Nordeste 17 Nordeste 0 -- -- 86
2019-08-19 01:00:00 13.3 6 Nordeste 16 Nordeste 0 -- -- 86
2019-08-19 00:00:00 13.5 4 Este 20 Nordeste 0 -- -- 85
2019-08-18 23:00:00 13.8 5 Nordeste 19 Este 0 -- -- 86
2019-08-18 22:00:00 14.2 4 Este 18 Nordeste 0 -- -- 88
2019-08-18 21:00:00 14.3 5 Nordeste 24 Nordeste 0.1 -- -- 88
2019-08-18 20:00:00 15.2 9 Nordeste 32 Este 0.2 -- -- 84
2019-08-18 19:00:00 17.7 7 Nordeste 33 Nordeste 0 -- -- 64
2019-08-18 18:00:00 18.9 10 Nordeste 32 Nordeste 0 -- -- 57
2019-08-18 17:00:00 21.8 13 Nordeste 37 Nordeste 0 -- -- 51
2019-08-18 16:00:00 22.9 9 Nordeste 39 Nordeste 0 -- -- 50
2019-08-18 15:00:00 27.5 6 Nordeste 24 Nordeste 0 -- -- 37
2019-08-18 14:00:00 26.1 5 Este 15 Sudeste 0 -- -- 42
2019-08-18 13:00:00 24.5 4 Nordeste 15 Nordeste 0 -- -- 47
2019-08-18 12:00:00 21.1 0 Calma 8 Sudeste 0 -- -- 64
2019-08-18 11:00:00 15.3 0 Calma 7 Sur 0 -- -- 81
2019-08-18 10:00:00 13.7 0 Calma 4 Este 0 -- -- 94
2019-08-18 09:00:00 13.1 0 Calma 8 Nordeste 0 -- -- 94
2019-08-18 08:00:00 12 0 Calma 6 Sudoeste 0 -- -- 94
2019-08-18 07:00:00 12.6 3 Sudoeste 7 Sudoeste 0 -- -- 94
2019-08-18 06:00:00 13.1 0 Calma 5 Sudoeste 0 -- -- 94
2019-08-18 05:00:00 12.4 0 Calma 5 Nordeste 0 -- -- 94
2019-08-18 04:00:00 12.5 0 Calma -- -- 0 -- -- 92
2019-08-18 03:00:00 12.7 0 Calma 0 Calma 0 -- -- 92
2019-08-18 02:00:00 13.9 0 Calma 5 Nordeste 0 -- -- 92
2019-08-18 01:00:00 14.9 0 Calma 3 Norte 0 -- -- 89
2019-08-18 00:00:00 15.9 0 Calma 6 Norte 0 -- -- 86
2019-08-17 23:00:00 17.6 0 Calma 13 Nordeste 0 -- -- 82
2019-08-17 22:00:00 19.7 5 Nordeste 23 Nordeste 0 -- -- 77
2019-08-17 21:00:00 21.9 9 Nordeste 24 Nordeste 0 -- -- 65
2019-08-17 20:00:00 26.5 9 Nordeste 24 Nordeste 0 -- -- 43
2019-08-17 19:00:00 32.6 10 Sudoeste 27 Sur 0 -- -- 16
2019-08-17 18:00:00 33.1 13 Sudoeste 28 Sudoeste 0 -- -- 17
2019-08-17 17:00:00 33 13 Sudoeste 30 Sudoeste 0 -- -- 18
2019-08-17 16:00:00 32.3 12 Sudoeste 27 Sudoeste 0 -- -- 19
2019-08-17 15:00:00 31 13 Sudoeste 25 Sudoeste 0 -- -- 22
2019-08-17 14:00:00 30 3 Sudeste 11 Sudoeste 0 -- -- 28
2019-08-17 13:00:00 27.9 3 Sudeste 9 Sudeste 0 -- -- 30
2019-08-17 12:00:00 23.8 2 Sudoeste 8 Sudoeste 0 -- -- 37
2019-08-17 11:00:00 18.7 3 Sudoeste 8 Sudoeste 0 -- -- 55
2019-08-17 10:00:00 13 0 Calma 4 Sudoeste 0 -- -- 78
2019-08-17 09:00:00 9.5 0 Calma 5 Oeste 0 -- -- 94
2019-08-17 08:00:00 7.6 0 Calma -- -- 0 -- -- 94
2019-08-17 07:00:00 7.9 0 Calma -- -- 0 -- -- 93
2019-08-17 06:00:00 9.1 0 Calma -- -- 0 -- -- 93
2019-08-17 05:00:00 9.6 0 Calma -- -- 0 -- -- 91
2019-08-17 04:00:00 10.5 0 Calma -- -- 0 -- -- 89
2019-08-17 03:00:00 11.2 0 Calma 0 Calma 0 -- -- 85
2019-08-17 02:00:00 12.3 0 Calma 3 Norte 0 -- -- 82
2019-08-17 01:00:00 13.3 0 Calma 10 Noroeste 0 -- -- 80
2019-08-17 00:00:00 14.3 0 Calma 4 Noroeste 0 -- -- 78
2019-08-16 23:00:00 15.9 0 Calma 7 Nordeste 0 -- -- 76
2019-08-16 22:00:00 18.5 0 Calma 11 Nordeste 0 -- -- 64
2019-08-16 21:00:00 20.5 4 Nordeste 22 Este 0 -- -- 58
2019-08-16 20:00:00 23.4 10 Nordeste 31 Nordeste 0 -- -- 47
2019-08-16 19:00:00 26.8 10 Nordeste 31 Nordeste 0 -- -- 37
2019-08-16 18:00:00 29.5 9 Nordeste 26 Nordeste 0 -- -- 31
2019-08-16 17:00:00 30.6 10 Nordeste 26 Nordeste 0 -- -- 30
2019-08-16 16:00:00 32.3 4 Sudoeste 21 Sudoeste 0 -- -- 22
2019-08-16 15:00:00 31.5 7 Sudoeste 21 Sudoeste 0 -- -- 24
2019-08-16 14:00:00 31 3 Sudeste 10 Sur 0 -- -- 28
2019-08-16 13:00:00 26.7 2 Sudeste 7 Sudeste 0 -- -- 35
2019-08-16 12:00:00 21.8 2 Sur 8 Sudeste 0 -- -- 47
2019-08-16 11:00:00 18.4 2 Este 6 Este 0 -- -- 65
2019-08-16 10:00:00 13.2 0 Calma 7 Sudoeste 0 -- -- 91
2019-08-16 09:00:00 12.1 4 Oeste 8 Sudoeste 0 -- -- 95
2019-08-16 08:00:00 11.8 5 Sudoeste 10 Sudoeste 0 -- -- 95
2019-08-16 07:00:00 12.2 5 Sudoeste 10 Oeste 0 -- -- 95
2019-08-16 06:00:00 13.2 3 Sudoeste 8 Sudoeste 0 -- -- 92
2019-08-16 05:00:00 13.1 0 Calma 6 Nordeste 0 -- -- 90
2019-08-16 04:00:00 12.8 0 Calma 3 Norte 0 -- -- 89
2019-08-16 03:00:00 12.4 0 Calma 2 Norte 0 -- -- 90
2019-08-16 02:00:00 12.5 0 Calma 4 Norte 0 -- -- 92
2019-08-16 01:00:00 12.4 0 Calma 6 Nordeste 0 -- -- 91
2019-08-16 00:00:00 14.1 3 Este 9 Este 0 -- -- 91
2019-08-15 23:00:00 14.3 3 Este 12 Nordeste 0 -- -- 89
2019-08-15 22:00:00 15.2 2 Nordeste 8 Este 0 -- -- 83
2019-08-15 21:00:00 16.8 3 Este 18 Nordeste 0 -- -- 75
2019-08-15 20:00:00 19.1 4 Nordeste 22 Nordeste 0 -- -- 62
2019-08-15 19:00:00 20.9 7 Nordeste 25 Nordeste 0 -- -- 54
2019-08-15 18:00:00 22.1 10 Nordeste 27 Nordeste 0 -- -- 50
2019-08-15 17:00:00 22.5 13 Nordeste 27 Nordeste 0 -- -- 47
2019-08-15 16:00:00 23.3 10 Nordeste 28 Nordeste 0 -- -- 43
2019-08-15 15:00:00 23.1 10 Nordeste 31 Nordeste 0 -- -- 43
2019-08-15 14:00:00 23.5 5 Nordeste 20 Nordeste 0 -- -- 43
2019-08-15 13:00:00 21.3 4 Nordeste 17 Nordeste 0 -- -- 50
2019-08-15 12:00:00 19.7 3 Nordeste 15 Nordeste 0 -- -- 59
2019-08-15 11:00:00 18.5 7 Nordeste 18 Nordeste 0 -- -- 65
2019-08-15 10:00:00 17.8 4 Nordeste 16 Nordeste 0 -- -- 71
2019-08-15 09:00:00 16.7 6 Nordeste 16 Nordeste 0 -- -- 80
2019-08-15 08:00:00 15.3 0 Calma 14 Nordeste 0 -- -- 88
2019-08-15 07:00:00 15.3 3 Nordeste 13 Nordeste 0 -- -- 89
2019-08-15 06:00:00 15.7 2 Nordeste 14 Nordeste 0 -- -- 85
2019-08-15 05:00:00 17.1 4 Nordeste 19 Nordeste 0 -- -- 84
2019-08-15 04:00:00 17 0 Calma 5 Este 0 -- -- 87
2019-08-15 03:00:00 17.1 0 Calma 6 Sudeste 0 -- -- 86
2019-08-15 02:00:00 16.8 0 Calma 4 Sudoeste 0 -- -- 85
2019-08-15 01:00:00 16.3 0 Calma 7 Nordeste 0 -- -- 85
2019-08-15 00:00:00 16 3 Nordeste 16 Este 0 -- -- 86
2019-08-14 23:00:00 16.8 6 Nordeste 17 Nordeste 0 -- -- 81
2019-08-14 22:00:00 17.4 6 Nordeste 17 Nordeste 0 -- -- 75
2019-08-14 21:00:00 19.3 4 Nordeste 21 Nordeste 0 -- -- 55
2019-08-14 20:00:00 22 6 Nordeste 26 Nordeste 0 -- -- 44
2019-08-14 19:00:00 23.3 9 Nordeste 28 Nordeste 0 -- -- 41
2019-08-14 18:00:00 23.7 9 Nordeste 32 Nordeste 0 -- -- 39
2019-08-14 17:00:00 26.6 12 Nordeste 28 Nordeste 0 -- -- 36
2019-08-14 16:00:00 25.7 9 Nordeste 26 Nordeste 0 -- -- 36
2019-08-14 15:00:00 28.2 4 Nordeste 14 Nordeste 0 -- -- 27
2019-08-14 14:00:00 26.5 9 Sudoeste 19 Sudoeste 0 -- -- 28
2019-08-14 13:00:00 24.7 3 Sur 11 Sudeste 0 -- -- 33
2019-08-14 12:00:00 21 3 Sudeste 7 Oeste 0 -- -- 49
2019-08-14 11:00:00 13.7 3 Sur 9 Sudoeste 0 -- -- 77
2019-08-14 10:00:00 10.5 0 Calma 6 Sudeste 0 -- -- 95
2019-08-14 09:00:00 9.3 0 Calma 5 Oeste 0 -- -- 95
2019-08-14 08:00:00 8.2 0 Calma -- -- 0 -- -- 95
2019-08-14 07:00:00 7.9 0 Calma 5 Este 0 -- -- 95
2019-08-14 06:00:00 8.1 0 Calma 5 Noroeste 0 -- -- 95
2019-08-14 05:00:00 8.6 0 Calma 3 Sudoeste 0 -- -- 94
2019-08-14 04:00:00 8.7 0 Calma -- -- 0 -- -- 93
2019-08-14 03:00:00 9.4 0 Calma 2 Oeste 0 -- -- 92
2019-08-14 02:00:00 9.7 0 Calma 4 Norte 0 -- -- 91
2019-08-14 01:00:00 10.4 0 Calma 5 Norte 0 -- -- 89
2019-08-14 00:00:00 11.6 0 Calma 3 Noroeste 0 -- -- 88
2019-08-13 23:00:00 13.4 0 Calma 10 Este 0 -- -- 83
2019-08-13 22:00:00 15.3 3 Este 11 Nordeste 0 -- -- 71
2019-08-13 21:00:00 17.1 5 Nordeste 15 Nordeste 0 -- -- 58
2019-08-13 20:00:00 19.8 6 Nordeste 17 Nordeste 0 -- -- 44
2019-08-13 19:00:00 21.3 7 Nordeste 19 Nordeste 0 -- -- 39
2019-08-13 18:00:00 22.1 10 Nordeste 23 Nordeste 0 -- -- 36
2019-08-13 17:00:00 22.2 7 Nordeste 21 Norte 0 -- -- 30
2019-08-13 16:00:00 23.3 7 Nordeste 22 Nordeste 0 -- -- 30
2019-08-13 15:00:00 22.1 4 Nordeste 20 Nordeste 0 -- -- 31
2019-08-13 14:00:00 21.6 5 Este 18 Sudeste 0 -- -- 34
2019-08-13 13:00:00 19.4 4 Este 17 Nordeste 0 -- -- 37
2019-08-13 12:00:00 18.7 6 Nordeste 14 Nordeste 0 -- -- 44
2019-08-13 11:00:00 12.9 4 Sudoeste 8 Sudoeste 0 -- -- 73
2019-08-13 10:00:00 9 0 Calma 5 Sudoeste 0 -- -- 95
2019-08-13 09:00:00 7.9 0 Calma -- -- 0 -- -- 95
2019-08-13 08:00:00 6.7 0 Calma -- -- 0 -- -- 95
2019-08-13 07:00:00 6.8 0 Calma -- -- 0 -- -- 94
2019-08-13 06:00:00 7 0 Calma -- -- 0 -- -- 93
2019-08-13 05:00:00 7.8 0 Calma -- -- 0 -- -- 92
2019-08-13 04:00:00 8.2 0 Calma -- -- 0 -- -- 92
2019-08-13 03:00:00 8.6 0 Calma -- -- 0 -- -- 90
2019-08-13 02:00:00 10.1 0 Calma 7 Nordeste 0 -- -- 85
2019-08-13 01:00:00 11.7 2 Nordeste 15 Nordeste 0 -- -- 75
2019-08-13 00:00:00 12.7 5 Nordeste 13 Nordeste 0 -- -- 73
2019-08-12 23:00:00 12.6 0 Calma 12 Nordeste 0 -- -- 76
2019-08-12 22:00:00 12.8 6 Nordeste 17 Nordeste 0 -- -- 71
2019-08-12 21:00:00 13.4 8 Nordeste 22 Nordeste 0 -- -- 64
2019-08-12 20:00:00 14.6 8 Nordeste 30 Nordeste 0 -- -- 57
2019-08-12 19:00:00 16.6 8 Nordeste 34 Nordeste 0 -- -- 48
2019-08-12 18:00:00 17.9 11 Nordeste 34 Nordeste 0 -- -- 45
2019-08-12 17:00:00 18.8 13 Nordeste 39 Nordeste 0 -- -- 43
2019-08-12 16:00:00 19.8 13 Nordeste 32 Nordeste 0 -- -- 41
2019-08-12 15:00:00 19.5 8 Nordeste 33 Nordeste 0 -- -- 42
2019-08-12 14:00:00 18.8 6 Norte 29 Nordeste 0 -- -- 39
2019-08-12 13:00:00 18.5 6 Nordeste 29 Nordeste 0 -- -- 40
2019-08-12 12:00:00 17.8 8 Nordeste 27 Nordeste 0 -- -- 47
2019-08-12 11:00:00 14.9 5 Nordeste 21 Nordeste 0 -- -- 57
2019-08-12 10:00:00 11.6 0 Calma 6 Sudoeste 0 -- -- 94
2019-08-12 09:00:00 8.4 0 Calma 4 Sudoeste 0.1 -- -- 95
2019-08-12 08:00:00 7.7 0 Calma 4 Noroeste 0 -- -- 95
2019-08-12 07:00:00 7.9 0 Calma 4 Sudoeste 0 -- -- 95
2019-08-12 06:00:00 8.1 0 Calma 4 Oeste 0 -- -- 94
2019-08-12 05:00:00 8.3 0 Calma 5 Oeste 0 -- -- 94
2019-08-12 04:00:00 8.8 0 Calma 4 Oeste 0 -- -- 93
2019-08-12 03:00:00 9.8 0 Calma 6 Nordeste 0 -- -- 92
2019-08-12 02:00:00 11.1 0 Calma 7 Nordeste 1 -- -- 92
2019-08-12 01:00:00 11.7 0 Calma 8 Este 0.3 -- -- 88
2019-08-12 00:00:00 11.9 2 Nordeste 11 Nordeste 0 -- -- 80
2019-08-11 23:00:00 12.2 3 Nordeste 16 Sudeste 0 -- -- 79
2019-08-11 22:00:00 12.9 3 Nordeste 21 Este 0 -- -- 74
2019-08-11 21:00:00 13.5 9 Nordeste 25 Nordeste 0 -- -- 68
2019-08-11 20:00:00 15 8 Nordeste 26 Nordeste 0 -- -- 61
2019-08-11 19:00:00 16.4 9 Nordeste 32 Nordeste 0 -- -- 60
2019-08-11 18:00:00 16.7 12 Nordeste 32 Nordeste 0 -- -- 62
2019-08-11 17:00:00 19.2 11 Nordeste 24 Nordeste 0 -- -- 56
2019-08-11 16:00:00 17.8 7 Nordeste 28 Nordeste 0 -- -- 65
2019-08-11 15:00:00 19.8 4 Norte 19 Noroeste 0 -- -- 51
2019-08-11 14:00:00 19.1 3 Nordeste 16 Este 0 -- -- 52
2019-08-11 13:00:00 19.4 4 Sudeste 13 Sudeste 0 -- -- 63
2019-08-11 12:00:00 15.5 3 Nordeste 12 Nordeste 0 -- -- 84
2019-08-11 11:00:00 14.3 0 Calma 4 Oeste 0 -- -- 88
2019-08-11 10:00:00 13.3 0 Calma 4 Este 0 -- -- 92
2019-08-11 09:00:00 12.6 0 Calma 5 Sudoeste 0 -- -- 93
2019-08-11 08:00:00 12.6 0 Calma 4 Este 0 -- -- 93
2019-08-11 07:00:00 12.5 0 Calma 10 Sudoeste 1.4 -- -- 93
2019-08-11 06:00:00 13 0 Calma 8 Oeste 2.4 -- -- 93
2019-08-11 05:00:00 12.7 0 Calma 6 Sudoeste 5.4 -- -- 93
2019-08-11 04:00:00 13.4 0 Calma 8 Sudoeste 1.3 -- -- 90
2019-08-11 03:00:00 14.2 2 Este 8 Nordeste 0 -- -- 81
2019-08-11 02:00:00 15.3 0 Calma 10 Nordeste 0 -- -- 69
2019-08-11 01:00:00 15.2 3 Nordeste 14 Nordeste 0 -- -- 68
2019-08-11 00:00:00 15.1 3 Nordeste 16 Nordeste 0 -- -- 70
2019-08-10 23:00:00 15.2 6 Nordeste 25 Nordeste 0 -- -- 73
2019-08-10 22:00:00 15.4 8 Nordeste 19 Nordeste 0 -- -- 71
2019-08-10 21:00:00 15.6 7 Nordeste 22 Norte 0 -- -- 69
2019-08-10 20:00:00 17.3 4 Nordeste 16 Nordeste 0 -- -- 68
2019-08-10 19:00:00 19.6 5 Nordeste 30 Nordeste 0 -- -- 58
2019-08-10 18:00:00 22.4 4 Nordeste 27 Nordeste 0 -- -- 49
2019-08-10 17:00:00 22.4 13 Nordeste 34 Nordeste 0 -- -- 47
2019-08-10 16:00:00 24.8 10 Nordeste 27 Nordeste 0 -- -- 40
2019-08-10 15:00:00 27.8 4 Sur 15 Sudoeste 0 -- -- 24
2019-08-10 14:00:00 25.7 0 Calma 14 Sudoeste 0 -- -- 29
2019-08-10 13:00:00 24.2 3 Nordeste 14 Sudoeste 0 -- -- 32
2019-08-10 12:00:00 22.7 3 Este 11 Sudeste 0 -- -- 36
2019-08-10 11:00:00 20.2 0 Calma 8 Este 0 -- -- 53
2019-08-10 10:00:00 17.6 0 Calma 6 Sudoeste 0 -- -- 71
2019-08-10 09:00:00 13.7 0 Calma 4 Sudoeste 0 -- -- 88
2019-08-10 08:00:00 12.8 0 Calma 5 Nordeste 0 -- -- 90
2019-08-10 07:00:00 12.7 0 Calma 4 Nordeste 0 -- -- 90
2019-08-10 06:00:00 12.7 0 Calma 0 Calma 0 -- -- 88
2019-08-10 05:00:00 13.2 0 Calma 6 Nordeste 0 -- -- 88
2019-08-10 04:00:00 13.5 0 Calma 4 Noroeste 0 -- -- 84
2019-08-10 03:00:00 14.2 0 Calma 3 Norte 0 -- -- 81
2019-08-10 02:00:00 14.7 0 Calma 9 Sudoeste 0 -- -- 79
2019-08-10 01:00:00 15.6 0 Calma 16 Sudoeste 0 -- -- 73
2019-08-10 00:00:00 16.2 0 Calma 8 Oeste 0 -- -- 61
2019-08-09 23:00:00 17.2 2 Sudoeste 11 Noroeste 0 -- -- 52
2019-08-09 22:00:00 19.2 2 Sudoeste 19 Sudoeste 0 -- -- 43
2019-08-09 21:00:00 22 13 Sudoeste 33 Sudoeste 0 -- -- 35
2019-08-09 20:00:00 24.3 13 Sudoeste 32 Sudoeste 0 -- -- 32
2019-08-09 19:00:00 25.4 18 Sudoeste 45 Sudoeste 0 -- -- 29
2019-08-09 18:00:00 25.8 21 Sudoeste 45 Oeste 0 -- -- 26
2019-08-09 17:00:00 27 22 Sudoeste 47 Sudoeste 0 -- -- 27
2019-08-09 16:00:00 27.1 26 Sudoeste 49 Sudoeste 0 -- -- 26
2019-08-09 15:00:00 27 26 Sudoeste 55 Sudoeste 0 -- -- 33
2019-08-09 14:00:00 25.5 22 Sudoeste 42 Sur 0 -- -- 38
2019-08-09 13:00:00 24 20 Sudoeste 53 Sudoeste 0 -- -- 42
2019-08-09 12:00:00 22 22 Sudoeste 42 Sudoeste 0 -- -- 61
2019-08-09 11:00:00 20 15 Sudoeste 35 Sudoeste 0 -- -- 82
2019-08-09 10:00:00 20.4 18 Sudoeste 37 Sudoeste 0 -- -- 78
2019-08-09 09:00:00 21.5 16 Sudoeste 37 Sudoeste 0 -- -- 66
2019-08-09 08:00:00 21 15 Sudoeste 33 Sudoeste 0 -- -- 65
2019-08-09 07:00:00 20.8 12 Sudoeste 28 Sudoeste 0 -- -- 62
2019-08-09 06:00:00 20.8 10 Sudoeste 30 Sudoeste 0 -- -- 60
2019-08-09 05:00:00 21.5 9 Sudoeste 26 Sudoeste 0 -- -- 57
2019-08-09 04:00:00 22.5 13 Sudoeste 24 Sudoeste 0 -- -- 54
2019-08-09 03:00:00 22.6 10 Sudoeste 19 Sudoeste 0 -- -- 53
2019-08-09 02:00:00 23.1 8 Sudoeste 20 Sudoeste 0 -- -- 52
2019-08-09 01:00:00 23.7 14 Sudoeste 29 Sudoeste 0 -- -- 51
2019-08-09 00:00:00 24 12 Sudoeste 26 Sudoeste 0 -- -- 51
2019-08-08 23:00:00 25.8 16 Sudoeste 31 Sudoeste 0 -- -- 43
2019-08-08 22:00:00 25.8 13 Sudoeste 33 Sudoeste 0 -- -- 41
2019-08-08 21:00:00 27 18 Sudoeste 40 Sudoeste 0 -- -- 39
2019-08-08 20:00:00 28.8 16 Sudoeste 40 Sudoeste 0 -- -- 38
2019-08-08 19:00:00 29 18 Sudoeste 38 Sudoeste 0 -- -- 38
2019-08-08 18:00:00 28.2 15 Sudoeste 40 Sudoeste 0 -- -- 40
2019-08-08 17:00:00 29.5 19 Sudoeste 44 Sudoeste 0 -- -- 38
2019-08-08 16:00:00 28.4 12 Sudoeste 39 Sudoeste 0 -- -- 42
2019-08-08 15:00:00 27.1 15 Sudoeste 34 Sudoeste 0 -- -- 46
2019-08-08 14:00:00 25.8 14 Sudoeste 34 Sudoeste 0 -- -- 52
2019-08-08 13:00:00 23.9 14 Sudoeste 36 Sudoeste 0 -- -- 56
2019-08-08 12:00:00 24.4 19 Sudoeste 36 Oeste 0 -- -- 53
2019-08-08 11:00:00 22.3 19 Sudoeste 35 Sudoeste 0 -- -- 59
2019-08-08 10:00:00 21 14 Sudoeste 27 Sur 0 -- -- 66
2019-08-08 09:00:00 19.9 7 Sudoeste 22 Oeste 0 -- -- 71
2019-08-08 08:00:00 19 9 Sudoeste 18 Sudoeste 0 -- -- 74
2019-08-08 07:00:00 19 8 Sudoeste 19 Oeste 0 -- -- 72
2019-08-08 06:00:00 19 10 Sudoeste 19 Sudoeste 0 -- -- 71
2019-08-08 05:00:00 18.9 9 Sudoeste 27 Sudoeste 0 -- -- 70
2019-08-08 04:00:00 18.1 9 Sudoeste 20 Sudoeste 0 -- -- 75
2019-08-08 03:00:00 16.9 9 Sudoeste 13 Sudoeste 0 -- -- 80
2019-08-08 02:00:00 17.1 5 Sudoeste 12 Sudoeste 0 -- -- 81
2019-08-08 01:00:00 16.6 0 Calma 10 Sudoeste 0 -- -- 84
2019-08-08 00:00:00 18.1 5 Sudoeste 17 Sudoeste 0 -- -- 77
2019-08-07 23:00:00 19.7 13 Sudoeste 27 Sudoeste 0 -- -- 65
2019-08-07 22:00:00 20.3 4 Sudoeste 17 Sudoeste 0 -- -- 53
2019-08-07 21:00:00 21.6 8 Sudoeste 28 Sudoeste 0 -- -- 47
2019-08-07 20:00:00 22.5 13 Sudoeste 38 Sudoeste 0 -- -- 44
2019-08-07 19:00:00 23.5 11 Sudoeste 33 Sudoeste 0 -- -- 41
2019-08-07 18:00:00 23.8 19 Sudoeste 40 Sudoeste 0 -- -- 37
2019-08-07 17:00:00 25.7 14 Sudoeste 31 Sudoeste 0 -- -- 34
2019-08-07 16:00:00 26.5 11 Sudoeste 23 Sudoeste 0 -- -- 32
2019-08-07 15:00:00 27.2 8 Sudoeste 18 Sudoeste 0 -- -- 32
2019-08-07 14:00:00 28.1 0 Calma 12 Sur 0 -- -- 33
2019-08-07 13:00:00 25.9 4 Sudeste 14 Nordeste 0 -- -- 36
2019-08-07 12:00:00 23.8 3 Nordeste 10 Nordeste 0 -- -- 51
2019-08-07 11:00:00 19.3 0 Calma 8 Sudoeste 0 -- -- 74
2019-08-07 10:00:00 16.5 3 Sudoeste 9 Sudoeste 0 -- -- 90
2019-08-07 09:00:00 15.7 0 Calma 4 Sur 0 -- -- 94
2019-08-07 08:00:00 15.2 0 Calma -- -- 0 -- -- 94
2019-08-07 07:00:00 15.1 0 Calma -- -- 0 -- -- 93
2019-08-07 06:00:00 15 0 Calma -- -- 0 -- -- 93
2019-08-07 05:00:00 15.2 0 Calma 3 Sudeste 0 -- -- 93
2019-08-07 04:00:00 16 0 Calma 5 Sudeste 0 -- -- 93
2019-08-07 03:00:00 16.1 0 Calma 6 Oeste 0 -- -- 93
2019-08-07 02:00:00 16.2 0 Calma 6 Sudoeste 0.1 -- -- 93
2019-08-07 01:00:00 16.5 0 Calma 5 Nordeste 0.3 -- -- 92
2019-08-07 00:00:00 16.7 0 Calma 16 Nordeste 0.3 -- -- 91
2019-08-06 23:00:00 17.4 0 Calma 20 Este 0 -- -- 84
2019-08-06 22:00:00 17.8 9 Nordeste 29 Nordeste 0 -- -- 80
2019-08-06 21:00:00 18.4 9 Nordeste 25 Nordeste 0 -- -- 75
2019-08-06 20:00:00 19.8 2 Este 26 Norte 0 -- -- 72
2019-08-06 19:00:00 21.6 10 Nordeste 30 Nordeste 0 -- -- 65
2019-08-06 18:00:00 25.1 8 Nordeste 31 Nordeste 0 -- -- 51
2019-08-06 17:00:00 25.7 11 Nordeste 30 Nordeste 0 -- -- 46
2019-08-06 16:00:00 30.8 8 Sudoeste 21 Sudoeste 0 -- -- 23
2019-08-06 15:00:00 30.2 6 Sudoeste 19 Sudoeste 0 -- -- 25
2019-08-06 14:00:00 28.6 5 Sudoeste 16 Sudoeste 0 -- -- 30
2019-08-06 13:00:00 26.1 3 Sur 10 Sudeste 0 -- -- 35
2019-08-06 12:00:00 22.3 0 Calma 12 Este 0 -- -- 43
2019-08-06 11:00:00 19.1 2 Sudoeste 8 Sudeste 0 -- -- 62
2019-08-06 10:00:00 14.1 0 Calma 6 Sudoeste 0 -- -- 83
2019-08-06 09:00:00 12.4 0 Calma 5 Sudeste 0 -- -- 94
2019-08-06 08:00:00 10.4 0 Calma 4 Nordeste 0 -- -- 94
2019-08-06 07:00:00 9.7 0 Calma 2 Nordeste 0 -- -- 93
2019-08-06 06:00:00 10.1 0 Calma -- -- 0 -- -- 92
2019-08-06 05:00:00 10.5 0 Calma 3 Noroeste 0 -- -- 90
2019-08-06 04:00:00 11 0 Calma 5 Norte 0 -- -- 89
2019-08-06 03:00:00 11.9 0 Calma 4 Noroeste 0 -- -- 90
2019-08-06 02:00:00 12.8 0 Calma 3 Norte 0 -- -- 90
2019-08-06 01:00:00 13.8 0 Calma 3 Norte 0 -- -- 89
2019-08-06 00:00:00 15.6 0 Calma 7 Este 0 -- -- 88
2019-08-05 23:00:00 16.4 2 Este 8 Este 0 -- -- 82
2019-08-05 22:00:00 18.3 3 Este 12 Este 0 -- -- 70
2019-08-05 21:00:00 20 4 Nordeste 21 Nordeste 0 -- -- 58
2019-08-05 20:00:00 22.4 7 Nordeste 30 Nordeste 0 -- -- 49
2019-08-05 19:00:00 23.9 6 Nordeste 33 Nordeste 0 -- -- 47
2019-08-05 18:00:00 25.3 10 Nordeste 33 Nordeste 0 -- -- 46
2019-08-05 17:00:00 27.8 8 Nordeste 28 Norte 0 -- -- 41
2019-08-05 16:00:00 29.3 11 Nordeste 28 Nordeste 0 -- -- 37
2019-08-05 15:00:00 29.4 8 Nordeste 25 Este 0 -- -- 34
2019-08-05 14:00:00 27.9 3 Sudeste 16 Este 0 -- -- 36
2019-08-05 13:00:00 26.5 3 Este 15 Este 0 -- -- 40
2019-08-05 12:00:00 24.4 4 Nordeste 13 Nordeste 0 -- -- 48
2019-08-05 11:00:00 16.8 3 Sur 7 Oeste 0 -- -- 75
2019-08-05 10:00:00 13.3 0 Calma 5 Oeste 0 -- -- 95
2019-08-05 09:00:00 12.5 0 Calma -- -- 0 -- -- 95
2019-08-05 08:00:00 11.6 0 Calma -- -- 0 -- -- 95
2019-08-05 07:00:00 11.3 0 Calma -- -- 0 -- -- 95
2019-08-05 06:00:00 10.8 0 Calma -- -- 0 -- -- 94
2019-08-05 05:00:00 11.1 0 Calma 0 Calma 0 -- -- 93
2019-08-05 04:00:00 11.8 0 Calma 0 Calma 0 -- -- 92
2019-08-05 03:00:00 12.6 0 Calma 5 Norte 0 -- -- 92
2019-08-05 02:00:00 13.2 0 Calma 3 Nordeste 0 -- -- 92
2019-08-05 01:00:00 14.4 0 Calma 6 Este 0 -- -- 90
2019-08-05 00:00:00 16.1 2 Nordeste 20 Nordeste 0 -- -- 86
2019-08-04 23:00:00 17.2 6 Nordeste 19 Nordeste 0 -- -- 82
2019-08-04 22:00:00 17.5 5 Nordeste 26 Este 0 -- -- 77
2019-08-04 21:00:00 18 9 Nordeste 28 Nordeste 0 -- -- 75
2019-08-04 20:00:00 19.4 10 Nordeste 31 Nordeste 0 -- -- 70
2019-08-04 19:00:00 21.2 12 Nordeste 32 Nordeste 0 -- -- 61
2019-08-04 18:00:00 24.5 9 Nordeste 32 Nordeste 0 -- -- 51
2019-08-04 17:00:00 27.3 11 Nordeste 35 Nordeste 0 -- -- 46
2019-08-04 16:00:00 28.7 13 Nordeste 28 Nordeste 0 -- -- 39
2019-08-04 15:00:00 29.9 8 Nordeste 17 Nordeste 0 -- -- 37
2019-08-04 14:00:00 26.9 3 Sudeste 11 Este 0 -- -- 42
2019-08-04 13:00:00 23.8 2 Sudeste 13 Sudeste 0 -- -- 48
2019-08-04 12:00:00 22.2 6 Nordeste 15 Nordeste 0 -- -- 54
2019-08-04 11:00:00 18.5 0 Calma 6 Oeste 0 -- -- 70
2019-08-04 10:00:00 15.5 3 Sudoeste 9 Sudoeste 0 -- -- 84
2019-08-04 09:00:00 13.2 5 Sudoeste 8 Sudoeste 0 -- -- 93
2019-08-04 08:00:00 11.6 0 Calma 6 Nordeste 0 -- -- 94
2019-08-04 07:00:00 11.3 0 Calma -- -- 0 -- -- 94
2019-08-04 06:00:00 11.5 0 Calma 2 Sudoeste 0 -- -- 93
2019-08-04 05:00:00 11.7 0 Calma 0 Calma 0 -- -- 93
2019-08-04 04:00:00 12.4 0 Calma 5 Nordeste 0 -- -- 93
2019-08-04 03:00:00 13.6 0 Calma 6 Sudeste 0 -- -- 93
2019-08-04 02:00:00 14 0 Calma 6 Nordeste 0 -- -- 92
2019-08-04 01:00:00 14.7 0 Calma 6 Nordeste 0 -- -- 90
2019-08-04 00:00:00 16.2 3 Este 9 Este 0 -- -- 87
2019-08-03 23:00:00 17 3 Este 12 Este 0 -- -- 84
2019-08-03 22:00:00 18 3 Este 15 Este 0 -- -- 79
2019-08-03 21:00:00 20.1 4 Nordeste 23 Nordeste 0 -- -- 76
2019-08-03 20:00:00 22.7 9 Nordeste 31 Nordeste 0 -- -- 65
2019-08-03 19:00:00 26.4 10 Nordeste 28 Nordeste 0 -- -- 48
2019-08-03 18:00:00 30.3 10 Nordeste 26 Nordeste 0 -- -- 34
2019-08-03 17:00:00 30.8 3 Norte 25 Nordeste 0 -- -- 32
2019-08-03 16:00:00 33.8 4 Nordeste 15 Nordeste 0 -- -- 21
2019-08-03 15:00:00 32.7 5 Nordeste 14 Nordeste 0 -- -- 23
2019-08-03 14:00:00 31.6 7 Nordeste 17 Nordeste 0 -- -- 26
2019-08-03 13:00:00 28.1 4 Este 12 Este 0 -- -- 32
2019-08-03 12:00:00 22.8 0 Calma 6 Sur 0 -- -- 38
2019-08-03 11:00:00 17.2 2 Sur 7 Sudeste 0 -- -- 74
2019-08-03 10:00:00 13.9 2 Oeste 8 Sudoeste 0 -- -- 93
2019-08-03 09:00:00 13.3 0 Calma 4 Noroeste 0 -- -- 94
2019-08-03 08:00:00 12 0 Calma 6 Norte 0 -- -- 95
2019-08-03 07:00:00 12.5 0 Calma 4 Noroeste 0 -- -- 95
2019-08-03 06:00:00 13.1 0 Calma 3 Noroeste 0 -- -- 95
2019-08-03 05:00:00 14.2 0 Calma -- -- 0 -- -- 95
2019-08-03 04:00:00 14.3 0 Calma 5 Noroeste 0 -- -- 94
2019-08-03 03:00:00 13.5 0 Calma 4 Norte 0 -- -- 93
2019-08-03 02:00:00 13.3 0 Calma 5 Oeste 0 -- -- 92
2019-08-03 01:00:00 14.2 0 Calma 3 Norte 0 -- -- 92
2019-08-03 00:00:00 15.5 0 Calma 4 Norte 0 -- -- 90
2019-08-02 23:00:00 17.6 0 Calma 12 Nordeste 0 -- -- 86
2019-08-02 22:00:00 19.4 5 Este 18 Nordeste 0 -- -- 77
2019-08-02 21:00:00 21.8 6 Este 17 Este 0 -- -- 62
2019-08-02 20:00:00 25.4 4 Este 19 Nordeste 0 -- -- 47
2019-08-02 19:00:00 27 5 Nordeste 26 Nordeste 0 -- -- 39
2019-08-02 18:00:00 28.3 6 Nordeste 24 Nordeste 0 -- -- 35
2019-08-02 17:00:00 29.5 3 Nordeste 18 Nordeste 0 -- -- 33
2019-08-02 16:00:00 29.4 5 Este 18 Este 0 -- -- 32
2019-08-02 15:00:00 28.4 5 Este 16 Este 0 -- -- 34
2019-08-02 14:00:00 27.1 6 Este 17 Este 0 -- -- 38
2019-08-02 13:00:00 24.6 5 Nordeste 13 Sudeste 0 -- -- 43
2019-08-02 12:00:00 22.2 3 Norte 15 Norte 0 -- -- 48
2019-08-02 11:00:00 20 4 Nordeste 14 Nordeste 0 -- -- 57
2019-08-02 10:00:00 17.4 2 Nordeste 14 Nordeste 0 -- -- 69
2019-08-02 09:00:00 14 3 Sudoeste 6 Sudoeste 0 -- -- 89
2019-08-02 08:00:00 12.6 0 Calma -- -- 0 -- -- 94
2019-08-02 07:00:00 12 0 Calma -- -- 0 -- -- 94
2019-08-02 06:00:00 13.9 0 Calma -- -- 0 -- -- 89
2019-08-02 05:00:00 14.2 0 Calma -- -- 0 -- -- 89
2019-08-02 04:00:00 14.1 0 Calma -- -- 0 -- -- 89
2019-08-02 03:00:00 13.7 0 Calma -- -- 0 -- -- 91
2019-08-02 02:00:00 13.1 0 Calma -- -- 0 -- -- 90
2019-08-02 01:00:00 14.6 0 Calma 11 Nordeste 0 -- -- 84
2019-08-02 00:00:00 15.6 3 Nordeste 14 Nordeste 0 -- -- 81
2019-08-01 23:00:00 16 4 Nordeste 16 Nordeste 0 -- -- 79
2019-08-01 22:00:00 16.1 2 Norte 13 Noroeste 0 -- -- 77
2019-08-01 21:00:00 17.1 5 Nordeste 19 Nordeste 0 -- -- 73
2019-08-01 20:00:00 19.5 0 Calma 20 Nordeste 0 -- -- 67
2019-08-01 19:00:00 20.3 6 Nordeste 23 Nordeste 0 -- -- 66
2019-08-01 18:00:00 19.1 12 Nordeste 27 Nordeste 0 -- -- 67
2019-08-01 17:00:00 21.3 8 Nordeste 22 Nordeste 0 -- -- 60
2019-08-01 16:00:00 21.5 6 Nordeste 23 Nordeste 0 -- -- 60
2019-08-01 15:00:00 20.5 7 Nordeste 21 Nordeste 0 -- -- 66
2019-08-01 14:00:00 19.2 6 Nordeste 15 Nordeste 0 -- -- 69
2019-08-01 13:00:00 18.8 5 Nordeste 15 Nordeste 0 -- -- 70
2019-08-01 12:00:00 18 5 Nordeste 16 Nordeste 0 -- -- 72
2019-08-01 11:00:00 17.4 4 Nordeste 17 Nordeste 0 -- -- 75
2019-08-01 10:00:00 16.5 3 Este 13 Nordeste 0 -- -- 78
2019-08-01 09:00:00 15.3 3 Este 10 Este 0 -- -- 79
2019-08-01 08:00:00 14.8 2 Nordeste 8 Sudeste 0 -- -- 84
2019-08-01 07:00:00 14.7 2 Este 12 Nordeste 0 -- -- 84
2019-08-01 06:00:00 14.5 3 Nordeste 14 Nordeste 0 -- -- 84
2019-08-01 05:00:00 14.6 2 Norte 15 Nordeste 0 -- -- 84
2019-08-01 04:00:00 14.5 4 Nordeste 20 Nordeste 0 -- -- 83
2019-08-01 03:00:00 14.5 3 Nordeste 17 Nordeste 0 -- -- 83
2019-08-01 02:00:00 14.2 3 Nordeste 12 Este 0 -- -- 86
2019-08-01 01:00:00 14.7 4 Nordeste 15 Nordeste 0 -- -- 84
2019-08-01 00:00:00 14.8 4 Nordeste 17 Nordeste 0 -- -- 83
2019-07-31 23:00:00 15.2 4 Nordeste 15 Nordeste 0 -- -- 83
2019-07-31 22:00:00 15.7 5 Nordeste 20 Nordeste 0 -- -- 80
2019-07-31 21:00:00 17 4 Nordeste 15 Nordeste 0 -- -- 71
2019-07-31 20:00:00 18.9 5 Nordeste 21 Nordeste 0 -- -- 60
2019-07-31 19:00:00 21.3 5 Nordeste 23 Nordeste 0 -- -- 48
2019-07-31 18:00:00 23.2 5 Nordeste 21 Nordeste 0 -- -- 43
2019-07-31 17:00:00 23.2 6 Nordeste 25 Nordeste 0 -- -- 40
2019-07-31 16:00:00 22.5 6 Nordeste 23 Nordeste 0 -- -- 42
2019-07-31 15:00:00 22.4 7 Nordeste 18 Este 0 -- -- 38
2019-07-31 14:00:00 21.9 6 Este 22 Este 0 -- -- 38
2019-07-31 13:00:00 21 7 Este 19 Este 0 -- -- 41
2019-07-31 12:00:00 20.2 6 Nordeste 18 Nordeste 0 -- -- 43
2019-07-31 11:00:00 17.9 8 Nordeste 19 Nordeste 0 -- -- 47
2019-07-31 10:00:00 14.1 0 Calma 7 Nordeste 0 -- -- 71
2019-07-31 09:00:00 9.9 0 Calma -- -- 0 -- -- 93
2019-07-31 08:00:00 8.3 0 Calma -- -- 0 -- -- 94
2019-07-31 07:00:00 8.8 0 Calma -- -- 0 -- -- 93
2019-07-31 06:00:00 9.7 0 Calma -- -- 0 -- -- 91
2019-07-31 05:00:00 11.2 0 Calma 9 Nordeste 0 -- -- 87
2019-07-31 04:00:00 12.9 3 Nordeste 11 Nordeste 0 -- -- 81
2019-07-31 03:00:00 13 0 Calma 9 Nordeste 0 -- -- 81
2019-07-31 02:00:00 12.9 2 Nordeste 13 Nordeste 0 -- -- 81
2019-07-31 01:00:00 12.8 4 Nordeste 11 Norte 0 -- -- 81
2019-07-31 00:00:00 12.8 5 Nordeste 17 Este 0 -- -- 83
2019-07-30 23:00:00 12.6 2 Este 10 Nordeste 0 -- -- 84
2019-07-30 22:00:00 12.6 4 Este 20 Nordeste 0 -- -- 79
2019-07-30 21:00:00 14.3 4 Nordeste 22 Nordeste 0 -- -- 69
2019-07-30 20:00:00 16.8 5 Nordeste 24 Nordeste 0 -- -- 56
2019-07-30 19:00:00 17.8 4 Norte 27 Nordeste 0 -- -- 50
2019-07-30 18:00:00 19.7 4 Nordeste 30 Nordeste 0 -- -- 47
2019-07-30 17:00:00 19.9 7 Nordeste 32 Nordeste 0 -- -- 45
2019-07-30 16:00:00 20.5 6 Nordeste 26 Nordeste 0 -- -- 41
2019-07-30 15:00:00 21.8 5 Nordeste 19 Nordeste 0 -- -- 38
2019-07-30 14:00:00 19 6 Nordeste 24 Este 0 -- -- 41
2019-07-30 13:00:00 18.6 8 Nordeste 26 Nordeste 0 -- -- 42
2019-07-30 12:00:00 20.1 9 Nordeste 24 Nordeste 0 -- -- 42
2019-07-30 11:00:00 17.8 8 Nordeste 24 Nordeste 0 -- -- 47
2019-07-30 10:00:00 16.3 4 Nordeste 19 Nordeste 0 -- -- 58
2019-07-30 09:00:00 12.3 0 Calma -- -- 0 -- -- 83
2019-07-30 08:00:00 10.6 0 Calma 4 Nordeste 0 -- -- 89
2019-07-30 07:00:00 11.5 0 Calma 7 Nordeste 0 -- -- 84
2019-07-30 06:00:00 12.6 3 Nordeste 11 Nordeste 0 -- -- 80
2019-07-30 05:00:00 13.1 3 Nordeste 12 Este 0 -- -- 81
2019-07-30 04:00:00 13.5 2 Nordeste 17 Nordeste 0 -- -- 81
2019-07-30 03:00:00 13.8 6 Nordeste 16 Nordeste 0 -- -- 82
2019-07-30 02:00:00 14.1 4 Nordeste 10 Nordeste 0 -- -- 82
2019-07-30 01:00:00 14.2 4 Nordeste 18 Nordeste 0 -- -- 82
2019-07-30 00:00:00 14.5 5 Nordeste 19 Nordeste 0 -- -- 81
2019-07-29 23:00:00 14.7 6 Nordeste 21 Nordeste 0 -- -- 81
2019-07-29 22:00:00 15.1 6 Nordeste 32 Nordeste 0 -- -- 80
2019-07-29 21:00:00 15.4 12 Nordeste 29 Nordeste 0 -- -- 78
2019-07-29 20:00:00 16.7 13 Nordeste 35 Nordeste 0 -- -- 72
2019-07-29 19:00:00 18.6 10 Nordeste 36 Nordeste 0 -- -- 63
2019-07-29 18:00:00 20.2 13 Nordeste 34 Nordeste 0 -- -- 56
2019-07-29 17:00:00 22.7 15 Nordeste 39 Nordeste 0 -- -- 42
2019-07-29 16:00:00 27.4 10 Sudoeste 37 Oeste 0 -- -- 26
2019-07-29 15:00:00 26.1 11 Sudoeste 30 Sudoeste 0 -- -- 30
2019-07-29 14:00:00 25.9 14 Sudoeste 33 Sudoeste 0 -- -- 33
2019-07-29 13:00:00 24.2 13 Sudoeste 25 Oeste 0 -- -- 34
2019-07-29 12:00:00 22.2 2 Sur 9 Sudoeste 0 -- -- 41
2019-07-29 11:00:00 18.5 2 Este 8 Sudeste 0 -- -- 57
2019-07-29 10:00:00 12 0 Calma 5 Sur 0 -- -- 83
2019-07-29 09:00:00 8.6 0 Calma 3 Nordeste 0 -- -- 95
2019-07-29 08:00:00 7.5 0 Calma 0 Calma 0 -- -- 95
2019-07-29 07:00:00 6.7 0 Calma 0 Calma 0 -- -- 95
2019-07-29 06:00:00 7.3 0 Calma 2 Nordeste 0 -- -- 94
2019-07-29 05:00:00 7.8 0 Calma 3 Oeste 0 -- -- 94
2019-07-29 04:00:00 8.3 0 Calma -- -- 0 -- -- 92
2019-07-29 03:00:00 9.2 0 Calma 3 Nordeste 0 -- -- 90
2019-07-29 02:00:00 9.9 0 Calma 0 Calma 0 -- -- 88
2019-07-29 01:00:00 11.7 0 Calma 3 Norte 0 -- -- 82
2019-07-29 00:00:00 12.6 0 Calma 5 Noroeste 0 -- -- 72
2019-07-28 23:00:00 13.8 0 Calma 6 Nordeste 0 -- -- 66
2019-07-28 22:00:00 15.8 0 Calma 7 Noroeste 0 -- -- 58
2019-07-28 21:00:00 20.1 0 Calma 7 Sudoeste 0 -- -- 42
2019-07-28 20:00:00 25.2 2 Sudoeste 8 Oeste 0 -- -- 28
2019-07-28 19:00:00 25 3 Sudeste 13 Sudoeste 0 -- -- 29
2019-07-28 18:00:00 25.1 3 Sur 23 Sudoeste 0 -- -- 29
2019-07-28 17:00:00 24.6 4 Oeste 16 Sudoeste 0 -- -- 30
2019-07-28 16:00:00 23.4 9 Sudoeste 18 Sudoeste 0 -- -- 32
2019-07-28 15:00:00 22.7 3 Sur 14 Sudoeste 0 -- -- 38
2019-07-28 14:00:00 21.8 3 Sur 11 Oeste 0 -- -- 38
2019-07-28 13:00:00 20.5 4 Sur 13 Sudeste 0 -- -- 43
2019-07-28 12:00:00 18.8 3 Sur 10 Sudeste 0 -- -- 51
2019-07-28 11:00:00 17.3 2 Este 9 Sur 0 -- -- 59
2019-07-28 10:00:00 12.1 0 Calma 7 Sudoeste 0 -- -- 85
2019-07-28 09:00:00 9.8 0 Calma 7 Oeste 0 -- -- 95
2019-07-28 08:00:00 8.6 5 Sudoeste 8 Sudoeste 0 -- -- 95
2019-07-28 07:00:00 9.1 0 Calma 5 Sudoeste 0 -- -- 95
2019-07-28 06:00:00 9.1 3 Sudoeste 7 Oeste 0 -- -- 95
2019-07-28 05:00:00 8.7 0 Calma 6 Nordeste 0 -- -- 95
2019-07-28 04:00:00 9.4 0 Calma 3 Noroeste 0 -- -- 94
2019-07-28 03:00:00 10.2 0 Calma 3 Nordeste 0 -- -- 94
2019-07-28 02:00:00 11.5 2 Nordeste 13 Nordeste 0 -- -- 93
2019-07-28 01:00:00 12.2 2 Nordeste 7 Nordeste 0 -- -- 92
2019-07-28 00:00:00 12.4 0 Calma 10 Este 0 -- -- 88
2019-07-27 23:00:00 13.2 2 Este 10 Nordeste 0 -- -- 86
2019-07-26 12:00:00 16.8 0 Calma 22 Nordeste 0 -- -- 76
2019-07-26 11:00:00 16.8 8 Nordeste 22 Este 0 -- -- 80
2019-07-26 10:00:00 17.1 4 Nordeste 24 Nordeste 0 -- -- 79
2019-07-26 09:00:00 16.9 7 Nordeste 21 Norte 0 -- -- 84
2019-07-26 08:00:00 16.7 4 Nordeste 17 Nordeste 0 -- -- 85
2019-07-26 07:00:00 16.9 3 Nordeste 23 Nordeste 0 -- -- 89
2019-07-26 06:00:00 17.4 0 Calma 12 Nordeste 0 -- -- 90
2019-07-26 05:00:00 17.2 2 Nordeste 15 Nordeste 0 -- -- 90
2019-07-26 04:00:00 17.6 4 Nordeste 21 Nordeste 0 -- -- 86
2019-07-26 03:00:00 17.6 0 Calma 13 Nordeste 0 -- -- 86
2019-07-26 02:00:00 17.8 0 Calma 15 Nordeste 0 -- -- 85
2019-07-26 01:00:00 18.2 5 Nordeste 17 Nordeste 0 -- -- 86
2019-07-26 00:00:00 18.7 7 Nordeste 22 Nordeste 0 -- -- 80
2019-07-25 23:00:00 18.4 2 Nordeste 18 Norte 0 -- -- 79
2019-07-25 22:00:00 18.5 6 Nordeste 27 Nordeste 0 -- -- 75
2019-07-25 21:00:00 19.8 11 Nordeste 37 Norte 0 -- -- 70
2019-07-25 20:00:00 22.3 12 Nordeste 37 Norte 0 -- -- 68
2019-07-25 19:00:00 26.9 15 Nordeste 35 Nordeste 0 -- -- 48
2019-07-25 18:00:00 32.5 12 Sudoeste 30 Sudoeste 0 -- -- 19
2019-07-25 17:00:00 33.6 13 Sudoeste 31 Sur 0 -- -- 19
2019-07-25 16:00:00 32.4 17 Sudoeste 41 Sudoeste 0 -- -- 20
2019-07-25 15:00:00 31.3 11 Sudoeste 31 Sudoeste 0 -- -- 24
2019-07-25 14:00:00 31.3 17 Sudoeste 36 Sudoeste 0 -- -- 24
2019-07-25 13:00:00 30.9 12 Sudoeste 32 Sudoeste 0 -- -- 27
2019-07-25 12:00:00 29.7 8 Sur 19 Sudoeste 0 -- -- 29
2019-07-25 11:00:00 26 0 Calma 9 Sudoeste 0 -- -- 42
2019-07-25 10:00:00 20.6 2 Este 6 Este 0 -- -- 66
2019-07-25 09:00:00 15.5 0 Calma -- -- 0 -- -- 90
2019-07-25 08:00:00 13.4 0 Calma 4 Nordeste 0 -- -- 93
2019-07-25 07:00:00 13.1 0 Calma 0 Calma 0 -- -- 93
2019-07-25 06:00:00 13.7 0 Calma 3 Sudoeste 0 -- -- 92
2019-07-25 05:00:00 14.5 0 Calma 8 Este 0 -- -- 90
2019-07-25 04:00:00 14.5 0 Calma -- -- 0 -- -- 87
2019-07-25 03:00:00 15.4 0 Calma -- -- 0 -- -- 86
2019-07-25 02:00:00 17.2 0 Calma 0 Calma 0 -- -- 80
2019-07-25 01:00:00 18.5 0 Calma 5 Sudoeste 0 -- -- 67
2019-07-25 00:00:00 20.6 0 Calma 8 Nordeste 0 -- -- 57
2019-07-24 23:00:00 22 0 Calma 7 Nordeste 0 -- -- 50
2019-07-24 22:00:00 24.9 0 Calma 9 Sudoeste 0 -- -- 40
2019-07-24 21:00:00 30.2 2 Sudoeste 12 Sudoeste 0 -- -- 28
2019-07-24 20:00:00 33.1 5 Sudoeste 22 Sudoeste 0 -- -- 23
2019-07-24 19:00:00 34.4 8 Sudoeste 27 Sudoeste 0 -- -- 22
2019-07-24 18:00:00 34.2 12 Sudoeste 33 Sudoeste 0 -- -- 23
2019-07-24 17:00:00 34.4 12 Sudoeste 36 Sur 0 -- -- 23
2019-07-24 16:00:00 34.1 8 Sur 23 Sudoeste 0 -- -- 23
2019-07-24 15:00:00 33.9 8 Sudoeste 24 Sudoeste 0 -- -- 25
2019-07-24 14:00:00 32.6 10 Sudoeste 23 Sudoeste 0 -- -- 26
2019-07-24 13:00:00 31.5 7 Sur 27 Sudoeste 0 -- -- 29
2019-07-24 12:00:00 28.3 2 Este 8 Este 0 -- -- 43
2019-07-24 11:00:00 23.1 3 Este 7 Sudoeste 0 -- -- 61
2019-07-24 10:00:00 19 0 Calma 5 Sudeste 0 -- -- 79
2019-07-24 09:00:00 15.4 0 Calma 2 Sudoeste 0 -- -- 93
2019-07-24 08:00:00 13.8 0 Calma 7 Nordeste 0 -- -- 95
2019-07-24 07:00:00 13.9 0 Calma 2 Noroeste 0 -- -- 95
2019-07-24 06:00:00 14.1 0 Calma 3 Noroeste 0 -- -- 93
2019-07-24 05:00:00 15.1 0 Calma 3 Norte 0 -- -- 92
2019-07-24 04:00:00 16.6 0 Calma 4 Sudoeste 0 -- -- 92
2019-07-24 03:00:00 17.2 0 Calma 13 Oeste 0 -- -- 89
2019-07-24 02:00:00 17.5 0 Calma 11 Este 0 -- -- 88
2019-07-24 01:00:00 17.9 0 Calma 26 Sudoeste 0 -- -- 84
2019-07-24 00:00:00 18 7 Sudoeste 17 Nordeste 0 -- -- 88
2019-07-23 23:00:00 18.9 7 Este 25 Nordeste 0.5 -- -- 78
2019-07-23 22:00:00 20.1 9 Oeste 35 Sur 0.4 -- -- 74
2019-07-23 21:00:00 18.8 6 Nordeste 21 Este 0.4 -- -- 84
2019-07-23 20:00:00 20.3 7 Sudeste 56 Sudoeste 2.4 -- -- 66
2019-07-23 19:00:00 35.1 2 Sur 22 Sudoeste 0 -- -- 21
2019-07-23 18:00:00 34.6 12 Sudoeste 23 Sudoeste 0 -- -- 21
2019-07-23 17:00:00 34.5 11 Sudoeste 31 Sudoeste 0 -- -- 22
2019-07-23 16:00:00 34 11 Sudoeste 31 Sudoeste 0 -- -- 24
2019-07-23 15:00:00 33.2 14 Sudoeste 37 Sudoeste 0 -- -- 27
2019-07-23 14:00:00 31.7 19 Sudoeste 36 Sudoeste 0 -- -- 28
2019-07-23 13:00:00 30.2 10 Sudoeste 19 Sudoeste 0 -- -- 30
2019-07-23 12:00:00 27.7 4 Sur 16 Sudoeste 0 -- -- 39
2019-07-23 11:00:00 24.5 6 Sudoeste 26 Sudoeste 0 -- -- 42
2019-07-23 10:00:00 22.8 4 Oeste 24 Sudoeste 0 -- -- 47
2019-07-23 09:00:00 15.5 0 Calma 9 Sudoeste 0 -- -- 87
2019-07-23 08:00:00 13.4 0 Calma 5 Sudoeste 0 -- -- 94
2019-07-23 07:00:00 12.5 0 Calma 8 Sudoeste 0 -- -- 94
2019-07-23 06:00:00 12.8 2 Nordeste 5 Oeste 0 -- -- 92
2019-07-23 05:00:00 13.7 0 Calma 4 Nordeste 0 -- -- 92
2019-07-23 04:00:00 14.4 0 Calma 8 Sudoeste 0 -- -- 88
2019-07-23 03:00:00 15.6 2 Oeste 11 Nordeste 0 -- -- 81
2019-07-23 02:00:00 15.8 0 Calma 6 Sudoeste 0 -- -- 83
2019-07-23 01:00:00 17.9 0 Calma 5 Noroeste 0 -- -- 68
2019-07-23 00:00:00 19.6 0 Calma 4 Sudoeste 0 -- -- 64
2019-07-22 23:00:00 21.9 3 Sudoeste 30 Sudoeste 0 -- -- 54
2019-07-22 22:00:00 25.2 17 Sudoeste 41 Sudoeste 0 -- -- 44
2019-07-22 21:00:00 27.6 2 Este 21 Nordeste 0 -- -- 47
2019-07-22 20:00:00 32.4 7 Nordeste 22 Nordeste 0 -- -- 26
2019-07-22 19:00:00 33.1 5 Este 22 Sudeste 0 -- -- 24
2019-07-22 18:00:00 36.5 5 Este 18 Sudeste 0 -- -- 22
2019-07-22 17:00:00 36.6 5 Sudeste 13 Este 0 -- -- 23
2019-07-22 16:00:00 36.3 3 Sudeste 18 Sudoeste 0 -- -- 24
2019-07-22 15:00:00 35.1 5 Sur 11 Sur 0 -- -- 25
2019-07-22 14:00:00 32.5 2 Este 11 Sudeste 0 -- -- 35
2019-07-22 13:00:00 29.3 2 Sur 8 Sudoeste 0 -- -- 48
2019-07-22 12:00:00 25.8 3 Sudeste 8 Sudeste 0 -- -- 56
2019-07-22 11:00:00 22.6 2 Sur 9 Sudeste 0 -- -- 67
2019-07-22 10:00:00 20.3 3 Nordeste 8 Nordeste 0 -- -- 77
2019-07-22 09:00:00 19.1 3 Nordeste 7 Nordeste 0 -- -- 85
2019-07-22 08:00:00 18.3 2 Nordeste 7 Nordeste 0 -- -- 88
2019-07-22 07:00:00 18.1 0 Calma 9 Nordeste 0 -- -- 88
2019-07-22 06:00:00 18.3 4 Nordeste 8 Nordeste 0 -- -- 86
2019-07-22 05:00:00 18.4 2 Nordeste 6 Nordeste 0 -- -- 86
2019-07-22 04:00:00 18.5 0 Calma 8 Nordeste 0 -- -- 84
2019-07-22 03:00:00 18.5 3 Nordeste 11 Nordeste 0 -- -- 84
2019-07-22 02:00:00 18.5 0 Calma 15 Nordeste 0 -- -- 84
2019-07-22 01:00:00 18.2 4 Nordeste 14 Nordeste 0 -- -- 87
2019-07-22 00:00:00 18.3 4 Nordeste 16 Nordeste 0 -- -- 86
2019-07-21 23:00:00 18.9 3 Nordeste 16 Nordeste 0 -- -- 82
2019-07-21 22:00:00 19 4 Nordeste 21 Nordeste 0 -- -- 81
2019-07-21 21:00:00 19.9 6 Nordeste 26 Nordeste 0 -- -- 76
2019-07-21 20:00:00 21.2 9 Nordeste 26 Nordeste 0 -- -- 67
2019-07-21 19:00:00 22.7 11 Nordeste 29 Nordeste 0 -- -- 62
2019-07-21 18:00:00 27.8 7 Nordeste 21 Nordeste 0 -- -- 47
2019-07-21 17:00:00 29.5 4 Nordeste 17 Nordeste 0 -- -- 41
2019-07-21 16:00:00 28.3 7 Nordeste 18 Nordeste 0 -- -- 43
2019-07-21 15:00:00 26.7 6 Nordeste 16 Nordeste 0 -- -- 49
2019-07-21 14:00:00 23.6 3 Norte 22 Nordeste 0 -- -- 57
2019-07-21 13:00:00 21.8 6 Nordeste 18 Nordeste 0 -- -- 65
2019-07-21 12:00:00 20.4 4 Nordeste 16 Este 0 -- -- 71
2019-07-21 11:00:00 19.4 5 Nordeste 15 Este 0 -- -- 75
2019-07-21 10:00:00 18.8 4 Nordeste 12 Nordeste 0 -- -- 78
2019-07-21 09:00:00 18 3 Nordeste 11 Nordeste 0 -- -- 81
2019-07-21 08:00:00 16.7 2 Nordeste 8 Nordeste 0 -- -- 86
2019-07-21 07:00:00 16.1 0 Calma 9 Este 0 -- -- 86
2019-07-21 06:00:00 16.9 5 Nordeste 14 Nordeste 0 -- -- 84
2019-07-21 05:00:00 17.1 5 Nordeste 13 Este 0 -- -- 84
2019-07-21 04:00:00 17.3 3 Nordeste 11 Este 0 -- -- 83
2019-07-21 03:00:00 17.3 3 Nordeste 10 Nordeste 0 -- -- 83
2019-07-21 02:00:00 17.1 3 Nordeste 16 Nordeste 0 -- -- 85
2019-07-21 01:00:00 17.2 3 Nordeste 17 Nordeste 0 -- -- 85
2019-07-21 00:00:00 17.4 5 Nordeste 22 Nordeste 0 -- -- 84